Time;durP1;ratioP1;P1;durP2;ratioP2;P2;SDS_P1;SDS_P2;PMS_P1;PMS_P2;Temp;Humidity;BMP_temperature;BMP_pressure;BME280_temperature;BME280_humidity;BME280_pressure;Samples;Min_cycle;Max_cycle;Signal;HPM_P1;HPM_P2
2022/07/14 00:00:31;;;;;;;1.57;1.47;;;26.70;48.80;;;;;;5022525;28;20861;-47
2022/07/14 00:02:57;;;;;;;2.00;1.60;;;26.70;48.00;;;;;;5026249;28;20458;-47
2022/07/14 00:05:24;;;;;;;1.97;1.60;;;26.70;47.90;;;;;;5028854;28;20454;-47
2022/07/14 00:07:51;;;;;;;1.40;1.30;;;26.70;48.00;;;;;;5027910;28;20447;-46
2022/07/14 00:10:18;;;;;;;1.43;1.33;;;26.60;48.10;;;;;;5026484;28;20956;-46
2022/07/14 00:12:45;;;;;;;1.80;1.70;;;26.60;48.20;;;;;;5028271;28;20446;-46
2022/07/14 00:15:12;;;;;;;2.60;1.53;;;26.60;48.40;;;;;;5021665;28;20963;-46
2022/07/14 00:17:38;;;;;;;2.23;2.00;;;26.50;48.70;;;;;;5024589;28;20866;-46
2022/07/14 00:20:06;;;;;;;2.20;1.87;;;26.50;49.30;;;;;;5027212;28;20476;-48
2022/07/14 00:22:32;;;;;;;2.53;2.33;;;26.50;49.40;;;;;;5023920;28;20530;-46
2022/07/14 00:24:59;;;;;;;3.43;1.80;;;26.50;49.50;;;;;;5024880;28;20462;-46
2022/07/14 00:27:26;;;;;;;1.80;1.70;;;26.40;49.90;;;;;;5030069;28;20473;-46
2022/07/14 00:29:53;;;;;;;2.00;1.60;;;26.40;50.00;;;;;;5030910;28;20470;-47
2022/07/14 00:32:20;;;;;;;4.40;2.20;;;26.40;50.70;;;;;;5031821;28;20439;-47
2022/07/14 00:34:47;;;;;;;3.63;2.27;;;26.40;50.90;;;;;;5028422;28;20470;-46
2022/07/14 00:37:13;;;;;;;2.20;2.10;;;26.40;51.30;;;;;;5030154;28;20454;-46
2022/07/14 00:39:55;;;;;;;2.63;2.30;;;26.30;51.30;;;;;;5030724;28;20466;-47
2022/07/14 00:42:34;;;;;;;3.60;3.30;;;26.30;51.30;;;;;;5027764;28;20548;-46
2022/07/14 00:45:06;;;;;;;2.40;2.20;;;26.20;51.60;;;;;;5028771;28;20463;-46
2022/07/14 00:47:33;;;;;;;3.93;1.83;;;26.10;52.00;;;;;;5031171;28;20538;-47
2022/07/14 00:50:00;;;;;;;3.30;2.30;;;26.10;52.30;;;;;;5029214;28;20461;-46
2022/07/14 00:52:29;;;;;;;4.10;2.07;;;26.00;52.50;;;;;;5026272;28;20458;-46
2022/07/14 00:54:57;;;;;;;2.40;2.20;;;26.00;52.60;;;;;;5027224;28;20984;-46
2022/07/14 00:57:25;;;;;;;2.30;2.20;;;26.00;52.50;;;;;;5029502;28;20483;-46
2022/07/14 00:59:52;;;;;;;2.30;2.10;;;25.90;52.60;;;;;;5029071;28;20464;-46
2022/07/14 01:02:20;;;;;;;3.43;2.60;;;25.90;52.90;;;;;;5029976;28;20490;-46
2022/07/14 01:04:48;;;;;;;3.60;1.97;;;25.80;53.10;;;;;;5030635;28;20445;-47
2022/07/14 01:07:17;;;;;;;3.30;2.30;;;25.80;53.70;;;;;;5030751;28;21218;-47
2022/07/14 01:09:45;;;;;;;3.20;2.90;;;25.70;54.60;;;;;;5013133;28;20462;-46
2022/07/14 01:12:11;;;;;;;6.20;2.80;;;25.70;54.60;;;;;;5029470;28;21016;-47
2022/07/14 01:14:39;;;;;;;3.20;2.43;;;25.70;54.60;;;;;;5028386;28;20542;-47
2022/07/14 01:17:07;;;;;;;2.53;2.33;;;25.60;54.80;;;;;;5025680;28;20466;-47
2022/07/14 01:19:34;;;;;;;2.33;2.13;;;25.60;55.00;;;;;;5009209;28;20466;-47
2022/07/14 01:22:01;;;;;;;2.63;2.33;;;25.50;55.10;;;;;;5028576;28;20513;-47
2022/07/14 01:24:28;;;;;;;3.33;2.60;;;25.50;55.20;;;;;;5030138;28;20454;-47
2022/07/14 01:26:55;;;;;;;2.70;2.50;;;25.40;55.40;;;;;;5027364;28;20943;-48
2022/07/14 01:29:23;;;;;;;3.50;2.53;;;25.40;55.50;;;;;;5030260;28;20464;-47
2022/07/14 01:31:50;;;;;;;2.80;2.50;;;25.30;55.70;;;;;;5029849;28;20450;-47
2022/07/14 01:34:18;;;;;;;2.77;2.47;;;25.30;55.70;;;;;;5023885;28;20462;-47
2022/07/14 01:36:45;;;;;;;2.63;2.43;;;25.20;56.00;;;;;;5027671;28;20498;-47
2022/07/14 01:39:12;;;;;;;2.33;2.13;;;25.20;55.90;;;;;;5031211;28;20527;-47
2022/07/14 01:41:39;;;;;;;2.43;2.23;;;25.10;55.80;;;;;;5028294;28;20948;-47
2022/07/14 01:44:05;;;;;;;3.17;2.17;;;25.10;55.50;;;;;;5026330;28;20458;-47
2022/07/14 01:46:33;;;;;;;2.50;2.30;;;25.00;55.70;;;;;;5029464;28;20947;-48
2022/07/14 01:49:00;;;;;;;2.67;2.47;;;25.00;55.90;;;;;;5028386;28;20467;-47
2022/07/14 01:51:27;;;;;;;2.10;1.97;;;25.00;56.10;;;;;;5030037;28;20470;-47
2022/07/14 01:53:53;;;;;;;2.57;1.93;;;24.90;56.00;;;;;;5027821;28;20463;-47
2022/07/14 01:56:22;;;;;;;2.30;2.10;;;24.80;55.80;;;;;;5012558;28;20817;-49
2022/07/14 01:58:49;;;;;;;2.90;2.30;;;24.80;55.80;;;;;;5027431;28;20461;-47
2022/07/14 02:04:02;;;;;;;2.80;1.70;;;24.60;56.30;;;;;;5028651;28;20942;-47
2022/07/14 02:06:29;;;;;;;1.97;1.87;;;24.60;56.70;;;;;;5029233;28;20451;-47
2022/07/14 02:08:58;;;;;;;2.53;1.90;;;24.50;56.70;;;;;;5028269;28;20463;-46
2022/07/14 02:14:11;;;;;;;2.00;1.90;;;24.40;56.80;;;;;;5027388;28;20468;-47
2022/07/14 02:16:38;;;;;;;4.27;2.40;;;24.40;56.80;;;;;;5029125;28;20470;-47
2022/07/14 02:19:05;;;;;;;2.40;2.17;;;24.30;56.70;;;;;;5026927;28;20509;-46
2022/07/14 02:21:32;;;;;;;2.40;2.20;;;24.30;56.90;;;;;;5011827;28;21088;-47
2022/07/14 02:23:59;;;;;;;2.20;1.50;;;24.20;57.00;;;;;;5030547;28;20465;-48
2022/07/14 02:26:26;;;;;;;4.30;2.30;;;24.10;57.20;;;;;;5025098;28;20453;-47
2022/07/14 02:28:53;;;;;;;2.33;2.17;;;24.10;57.40;;;;;;5029823;28;20454;-47
2022/07/14 02:31:20;;;;;;;2.20;2.00;;;24.10;57.60;;;;;;5027841;28;20466;-47
2022/07/14 02:33:47;;;;;;;2.60;2.30;;;24.10;57.80;;;;;;5031014;28;20898;-46
2022/07/14 02:36:15;;;;;;;2.60;2.40;;;24.00;57.80;;;;;;5029063;28;20470;-46
2022/07/14 02:38:42;;;;;;;4.20;2.30;;;24.00;57.50;;;;;;5029075;28;20443;-46
2022/07/14 02:41:09;;;;;;;2.53;2.33;;;24.00;57.50;;;;;;5029609;28;20489;-46
2022/07/14 02:43:36;;;;;;;2.10;1.97;;;23.90;57.50;;;;;;5029222;28;20522;-46
2022/07/14 02:46:04;;;;;;;2.27;2.17;;;23.90;57.60;;;;;;5029262;28;20542;-46
2022/07/14 02:48:31;;;;;;;3.10;2.47;;;23.90;57.50;;;;;;5026325;28;20513;-46
2022/07/14 02:51:02;;;;;;;2.30;2.10;;;23.80;57.30;;;;;;5030781;28;20449;-46
2022/07/14 02:53:29;;;;;;;3.17;2.00;;;23.80;57.30;;;;;;5029373;28;20439;-46
2022/07/14 02:55:56;;;;;;;2.10;1.90;;;23.80;57.50;;;;;;5031358;28;20525;-46
2022/07/14 02:58:25;;;;;;;2.23;2.03;;;23.80;57.30;;;;;;5030356;28;20451;-46
2022/07/14 03:00:53;;;;;;;2.93;2.27;;;23.70;57.20;;;;;;5031074;28;20443;-50
2022/07/14 03:03:21;;;;;;;2.83;1.90;;;23.70;57.20;;;;;;5030421;28;21228;-50
2022/07/14 03:05:48;;;;;;;2.07;1.97;;;23.70;57.50;;;;;;5030645;28;20453;-50
2022/07/14 03:08:15;;;;;;;1.97;1.80;;;23.70;57.30;;;;;;5024167;28;20462;-50
2022/07/14 03:10:42;;;;;;;2.20;2.00;;;23.70;57.00;;;;;;5025678;28;20863;-49
2022/07/14 03:13:09;;;;;;;3.33;1.97;;;23.60;57.00;;;;;;5028365;28;20463;-49
2022/07/14 03:15:38;;;;;;;2.90;2.40;;;23.60;57.30;;;;;;5011969;28;20855;-49
2022/07/14 03:18:05;;;;;;;2.17;1.97;;;23.60;57.40;;;;;;5030158;28;20454;-49
2022/07/14 03:20:32;;;;;;;1.60;1.50;;;23.60;57.30;;;;;;5029696;28;20449;-50
2022/07/14 03:22:58;;;;;;;2.20;2.00;;;23.50;57.30;;;;;;5029039;28;20493;-50
2022/07/14 03:25:25;;;;;;;4.03;2.37;;;23.60;57.60;;;;;;5029908;28;20453;-50
2022/07/14 03:27:53;;;;;;;3.07;1.93;;;23.70;57.30;;;;;;5028932;28;20469;-50
2022/07/14 03:30:20;;;;;;;5.10;1.90;;;23.70;57.30;;;;;;5026022;28;20872;-49
2022/07/14 03:32:47;;;;;;;1.70;1.60;;;23.60;57.20;;;;;;5030818;28;20933;-50
2022/07/14 03:35:14;;;;;;;2.63;2.40;;;23.50;57.20;;;;;;5029202;28;20593;-50
2022/07/14 03:37:41;;;;;;;3.93;2.17;;;23.50;57.10;;;;;;5011659;28;20465;-50
2022/07/14 03:40:08;;;;;;;2.10;1.90;;;23.40;57.20;;;;;;5028093;28;20458;-50
2022/07/14 03:42:35;;;;;;;2.77;2.20;;;23.40;57.40;;;;;;5026045;28;20518;-50
2022/07/14 03:45:02;;;;;;;3.00;2.10;;;23.40;57.70;;;;;;5020155;28;20469;-49
2022/07/14 03:47:28;;;;;;;4.97;2.53;;;23.30;57.70;;;;;;5027387;28;20494;-50
2022/07/14 03:49:55;;;;;;;2.87;2.20;;;23.30;58.00;;;;;;5024740;28;20954;-50
2022/07/14 03:52:22;;;;;;;2.60;2.20;;;23.30;58.10;;;;;;5025656;28;20470;-51
2022/07/14 03:54:49;;;;;;;2.83;2.00;;;23.30;58.10;;;;;;5023920;28;20463;-50
2022/07/14 03:57:16;;;;;;;3.00;1.83;;;23.30;58.20;;;;;;5024512;28;20478;-49
2022/07/14 03:59:42;;;;;;;3.83;2.00;;;23.30;58.10;;;;;;5026854;28;21014;-50
2022/07/14 04:02:11;;;;;;;2.20;2.00;;;23.30;57.90;;;;;;5031942;28;20495;-49
2022/07/14 04:04:39;;;;;;;2.10;2.00;;;23.30;57.70;;;;;;5028876;28;20451;-50
2022/07/14 04:07:07;;;;;;;2.13;2.03;;;23.30;57.60;;;;;;5029249;28;20953;-50
2022/07/14 04:09:34;;;;;;;2.80;2.17;;;23.20;57.60;;;;;;5034025;28;20455;-50
2022/07/14 04:12:01;;;;;;;3.63;2.17;;;23.20;58.10;;;;;;5028260;28;20512;-47
2022/07/14 04:14:27;;;;;;;1.80;1.70;;;23.20;58.50;;;;;;5026851;28;20837;-47
2022/07/14 04:16:55;;;;;;;2.83;1.70;;;23.20;58.60;;;;;;5025985;28;20470;-47
2022/07/14 04:19:22;;;;;;;1.97;1.87;;;23.20;58.80;;;;;;5028329;28;20917;-47
2022/07/14 04:21:49;;;;;;;2.50;1.83;;;23.20;58.90;;;;;;5028705;28;20883;-47
2022/07/14 04:24:17;;;;;;;4.50;2.03;;;23.20;58.90;;;;;;5028437;28;20465;-46
2022/07/14 04:26:44;;;;;;;3.17;2.43;;;23.20;58.90;;;;;;5030842;28;20998;-47
2022/07/14 04:29:11;;;;;;;3.50;2.13;;;23.20;59.10;;;;;;5029358;28;20485;-47
2022/07/14 04:31:38;;;;;;;2.70;2.10;;;23.20;59.10;;;;;;5028525;28;20465;-47
2022/07/14 04:34:05;;;;;;;3.10;2.20;;;23.20;59.00;;;;;;5026705;28;20459;-47
2022/07/14 04:36:32;;;;;;;3.47;2.07;;;23.20;59.20;;;;;;5028784;28;20606;-48
2022/07/14 04:38:59;;;;;;;2.60;2.40;;;23.30;59.50;;;;;;5026025;28;20469;-47
2022/07/14 04:41:26;;;;;;;4.93;2.43;;;23.30;59.50;;;;;;5023368;28;20454;-47
2022/07/14 04:43:54;;;;;;;3.80;2.47;;;23.30;59.40;;;;;;5027471;28;20454;-46
2022/07/14 04:46:20;;;;;;;3.00;2.43;;;23.40;59.20;;;;;;5028656;28;20462;-48
2022/07/14 04:54:18;;;;;;;3.00;2.23;;;23.40;59.70;;;;;;5031930;28;20454;-47
2022/07/14 04:56:45;;;;;;;2.10;1.83;;;23.40;59.50;;;;;;5026801;28;20450;-47
2022/07/14 04:59:26;;;;;;;4.37;2.50;;;23.40;59.30;;;;;;5026469;28;20833;-47
2022/07/14 05:01:54;;;;;;;2.13;2.00;;;23.40;59.20;;;;;;5026545;28;20494;-47
2022/07/14 05:04:21;;;;;;;2.73;2.47;;;23.40;59.10;;;;;;5026605;28;21265;-48
2022/07/14 05:06:49;;;;;;;2.53;2.30;;;23.30;59.20;;;;;;5025670;28;20459;-47
2022/07/14 05:09:20;;;;;;;4.37;2.67;;;23.30;59.50;;;;;;5025867;28;20550;-46
2022/07/14 05:11:46;;;;;;;2.73;2.50;;;23.30;59.70;;;;;;5027437;28;20458;-47
2022/07/14 05:14:13;;;;;;;3.80;2.30;;;23.40;59.80;;;;;;5023722;28;20490;-46
2022/07/14 05:16:40;;;;;;;3.00;2.27;;;23.40;59.80;;;;;;5022796;28;20843;-47
2022/07/14 05:19:27;;;;;;;2.47;2.27;;;23.40;59.80;;;;;;5027577;28;20542;-47
2022/07/14 05:21:54;;;;;;;2.57;2.20;;;23.40;59.70;;;;;;5006901;28;20504;-48
2022/07/14 05:24:20;;;;;;;2.77;2.10;;;23.40;59.90;;;;;;5031076;28;20819;-46
2022/07/14 05:26:47;;;;;;;2.00;1.80;;;23.40;60.10;;;;;;5026270;28;20466;-46
2022/07/14 05:29:17;;;;;;;4.90;2.80;;;23.40;60.30;;;;;;5030549;28;20538;-47
2022/07/14 05:31:43;;;;;;;4.43;2.50;;;23.40;60.40;;;;;;5026989;28;20557;-47
2022/07/14 05:34:10;;;;;;;2.90;2.60;;;23.50;60.80;;;;;;5023030;28;20471;-47
2022/07/14 05:36:37;;;;;;;2.70;2.50;;;23.50;60.90;;;;;;5021301;28;20893;-46
2022/07/14 05:39:04;;;;;;;2.87;2.37;;;23.50;60.90;;;;;;5025300;28;20955;-47
2022/07/14 05:41:31;;;;;;;2.80;2.60;;;23.60;60.90;;;;;;5024612;28;20595;-47
2022/07/14 05:43:58;;;;;;;4.40;2.80;;;23.70;60.70;;;;;;5026023;28;20461;-47
2022/07/14 05:46:25;;;;;;;4.27;2.83;;;23.70;60.60;;;;;;5030108;28;20475;-46
2022/07/14 05:48:53;;;;;;;2.93;2.70;;;23.80;59.90;;;;;;5026228;28;20467;-48
2022/07/14 05:51:22;;;;;;;3.80;2.67;;;23.90;59.50;;;;;;5027895;28;20455;-46
2022/07/14 05:53:49;;;;;;;4.27;3.30;;;23.90;59.30;;;;;;5030284;28;20466;-46
2022/07/14 05:56:19;;;;;;;3.57;2.67;;;24.00;59.20;;;;;;5030843;28;20477;-46
2022/07/14 05:58:46;;;;;;;6.13;2.30;;;24.00;59.30;;;;;;5027655;28;20469;-47
2022/07/14 06:01:13;;;;;;;3.33;2.50;;;24.10;59.00;;;;;;5025142;28;20459;-46
2022/07/14 06:03:40;;;;;;;2.97;2.30;;;24.10;59.00;;;;;;5031031;28;20494;-46
2022/07/14 06:06:08;;;;;;;5.20;3.00;;;24.10;59.00;;;;;;5029175;28;20468;-47
2022/07/14 06:08:36;;;;;;;3.93;2.20;;;24.20;59.10;;;;;;5011775;28;20482;-47
2022/07/14 06:11:03;;;;;;;4.70;3.17;;;24.20;59.10;;;;;;5029958;28;20810;-47
2022/07/14 06:13:31;;;;;;;6.10;2.70;;;24.30;58.90;;;;;;5026383;28;20532;-47
2022/07/14 06:15:59;;;;;;;5.63;2.80;;;24.40;58.20;;;;;;5026894;28;21033;-47
2022/07/14 06:18:26;;;;;;;3.60;2.97;;;24.40;58.00;;;;;;5027160;28;20455;-48
2022/07/14 06:20:53;;;;;;;3.97;2.50;;;24.40;58.40;;;;;;5028432;28;20446;-47
2022/07/14 06:23:20;;;;;;;5.30;2.83;;;24.40;57.60;;;;;;5010368;28;21033;-47
2022/07/14 06:25:47;;;;;;;3.43;2.27;;;24.40;57.60;;;;;;5007191;28;20455;-47
2022/07/14 06:28:14;;;;;;;3.23;2.70;;;24.40;58.00;;;;;;5030009;28;20469;-47
2022/07/14 06:30:41;;;;;;;2.83;2.63;;;24.40;57.80;;;;;;5029928;28;20985;-47
2022/07/14 06:33:08;;;;;;;4.13;2.83;;;24.50;57.50;;;;;;5029196;28;20455;-47
2022/07/14 06:35:40;;;;;;;4.07;3.00;;;24.50;57.50;;;;;;5027640;28;20477;-47
2022/07/14 06:38:27;;;;;;;3.00;2.80;;;24.50;57.60;;;;;;5026231;28;20970;-48
2022/07/14 06:40:53;;;;;;;3.80;2.77;;;24.50;57.50;;;;;;5028568;28;20831;-48
2022/07/14 06:43:21;;;;;;;3.87;2.87;;;24.60;57.10;;;;;;5028672;28;21003;-47
2022/07/14 06:45:48;;;;;;;3.17;2.90;;;24.60;57.10;;;;;;5025800;28;20822;-47
2022/07/14 06:48:15;;;;;;;3.13;2.70;;;24.70;56.50;;;;;;5022201;28;20530;-48
2022/07/14 06:50:42;;;;;;;5.10;2.70;;;24.70;56.90;;;;;;5022670;28;20553;-49
2022/07/14 06:53:09;;;;;;;3.63;3.30;;;24.70;57.00;;;;;;5025073;28;20474;-47
2022/07/14 06:55:36;;;;;;;3.90;3.60;;;24.70;57.00;;;;;;5007793;28;20544;-47
2022/07/14 06:58:03;;;;;;;4.77;3.07;;;24.70;56.70;;;;;;5024051;28;20451;-48
2022/07/14 07:00:30;;;;;;;4.73;2.70;;;24.80;56.10;;;;;;5025470;28;20455;-48
2022/07/14 07:02:57;;;;;;;4.90;4.10;;;24.90;56.40;;;;;;5027194;28;20490;-48
2022/07/14 07:08:09;;;;;;;3.60;3.00;;;25.00;56.30;;;;;;5028227;28;20970;-48
2022/07/14 07:10:40;;;;;;;4.53;3.00;;;25.10;55.80;;;;;;5009647;28;20445;-47
2022/07/14 07:13:09;;;;;;;3.53;2.87;;;25.10;55.70;;;;;;5028149;28;20546;-48
2022/07/14 07:15:39;;;;;;;4.30;2.93;;;25.10;55.90;;;;;;5025422;28;20510;-48
2022/07/14 07:18:07;;;;;;;3.17;2.80;;;25.00;56.10;;;;;;5028008;28;20454;-48
2022/07/14 07:20:35;;;;;;;4.77;2.80;;;25.00;56.20;;;;;;5028090;28;20473;-48
2022/07/14 07:23:03;;;;;;;3.50;3.13;;;25.00;56.40;;;;;;5029372;28;20487;-47
2022/07/14 07:25:30;;;;;;;3.93;2.83;;;25.10;56.60;;;;;;5027803;28;20489;-47
2022/07/14 07:27:59;;;;;;;3.47;3.10;;;25.10;56.30;;;;;;5010006;28;20459;-48
2022/07/14 07:30:26;;;;;;;3.00;2.80;;;25.20;56.10;;;;;;5027491;28;20469;-49
2022/07/14 07:32:53;;;;;;;4.00;3.40;;;25.20;56.20;;;;;;5026968;28;20469;-47
2022/07/14 07:35:20;;;;;;;4.30;3.30;;;25.30;56.30;;;;;;5028622;28;20545;-47
2022/07/14 07:37:46;;;;;;;3.80;2.90;;;25.30;55.40;;;;;;5032026;28;20505;-48
2022/07/14 07:40:14;;;;;;;3.53;2.70;;;25.40;55.10;;;;;;5033439;28;20446;-48
2022/07/14 07:42:42;;;;;;;3.80;3.30;;;25.40;55.50;;;;;;5029345;28;20676;-48
2022/07/14 07:45:10;;;;;;;2.60;2.40;;;25.50;54.90;;;;;;5029660;28;20804;-48
2022/07/14 07:47:37;;;;;;;4.07;2.60;;;25.50;54.70;;;;;;5029107;28;20550;-48
2022/07/14 07:50:05;;;;;;;4.17;3.30;;;25.50;54.90;;;;;;5026646;28;20465;-49
2022/07/14 07:52:32;;;;;;;3.50;3.20;;;25.60;54.70;;;;;;5032300;28;20447;-49
2022/07/14 07:54:59;;;;;;;3.63;3.10;;;25.60;54.60;;;;;;5030169;28;20448;-49
2022/07/14 07:57:47;;;;;;;5.77;3.20;;;25.70;54.60;;;;;;5029802;28;20457;-47
2022/07/14 08:00:13;;;;;;;5.40;3.80;;;25.70;54.40;;;;;;5028496;28;20454;-46
2022/07/14 08:02:48;;;;;;;5.03;3.00;;;25.80;54.30;;;;;;5027985;28;21018;-46
2022/07/14 08:05:17;;;;;;;7.60;3.83;;;25.90;54.40;;;;;;5025276;28;20872;-47
2022/07/14 08:08:07;;;;;;;3.50;2.90;;;25.90;54.90;;;;;;5029885;28;20458;-49
2022/07/14 08:10:38;;;;;;;7.10;3.70;;;25.90;54.90;;;;;;5032298;28;20443;-47
2022/07/14 08:13:06;;;;;;;4.43;3.40;;;26.00;55.20;;;;;;5030939;28;20553;-47
2022/07/14 08:15:33;;;;;;;4.30;3.27;;;26.00;54.90;;;;;;5030177;28;20463;-47
2022/07/14 08:18:00;;;;;;;4.10;3.30;;;26.00;54.80;;;;;;5030854;28;20565;-47
2022/07/14 08:20:27;;;;;;;5.43;3.73;;;26.00;55.00;;;;;;5008381;28;20458;-48
2022/07/14 08:22:55;;;;;;;5.53;3.30;;;26.10;54.90;;;;;;5031527;28;20474;-47
2022/07/14 08:25:22;;;;;;;5.17;3.50;;;26.10;55.20;;;;;;5026740;28;21260;-47
2022/07/14 08:27:49;;;;;;;3.70;3.40;;;26.10;55.50;;;;;;5026484;28;20478;-49
2022/07/14 08:30:16;;;;;;;7.67;4.10;;;26.10;55.40;;;;;;5028088;28;20866;-47
2022/07/14 08:32:44;;;;;;;7.03;3.87;;;26.20;55.20;;;;;;5004008;28;20467;-47
2022/07/14 08:35:14;;;;;;;4.20;3.47;;;26.20;55.10;;;;;;5024288;28;20506;-47
2022/07/14 08:37:42;;;;;;;5.67;3.43;;;26.40;55.30;;;;;;5028797;28;20555;-47
2022/07/14 08:40:18;;;;;;;5.30;3.17;;;26.50;54.40;;;;;;5028240;28;20465;-47
2022/07/14 08:42:48;;;;;;;7.00;3.90;;;26.80;53.80;;;;;;5029620;28;20578;-46
2022/07/14 08:45:20;;;;;;;3.87;3.30;;;27.10;53.00;;;;;;5026232;28;21164;-47
2022/07/14 08:47:48;;;;;;;4.13;3.73;;;27.20;52.60;;;;;;5029624;28;20476;-47
2022/07/14 08:50:18;;;;;;;4.13;3.77;;;27.20;52.70;;;;;;5029841;28;20446;-47
2022/07/14 08:52:46;;;;;;;4.60;4.20;;;27.20;53.20;;;;;;5029290;28;20470;-47
2022/07/14 08:55:17;;;;;;;4.57;3.60;;;27.30;54.00;;;;;;5029051;28;20486;-46
2022/07/14 08:57:44;;;;;;;4.40;4.00;;;27.30;52.70;;;;;;5027201;28;20498;-47
2022/07/14 09:00:17;;;;;;;4.03;3.40;;;27.40;52.60;;;;;;5026889;28;20208;-47
2022/07/14 09:02:52;;;;;;;3.60;3.30;;;27.40;53.00;;;;;;5023619;28;20845;-48
2022/07/14 09:05:44;;;;;;;5.40;4.03;;;27.30;52.20;;;;;;5021076;28;20459;-48
2022/07/14 09:08:12;;;;;;;3.83;3.13;;;27.20;52.50;;;;;;5029399;28;20214;-48
2022/07/14 09:10:42;;;;;;;4.57;3.70;;;27.10;52.80;;;;;;5031103;28;20987;-48
2022/07/14 09:13:31;;;;;;;5.50;3.77;;;27.10;52.90;;;;;;5032514;28;20438;-48
2022/07/14 09:16:20;;;;;;;4.20;3.80;;;27.20;53.20;;;;;;5030365;28;20679;-49
2022/07/14 09:19:06;;;;;;;4.67;4.20;;;27.20;53.80;;;;;;5029658;28;20450;-48
2022/07/14 09:21:34;;;;;;;4.23;3.90;;;27.30;53.00;;;;;;5028991;28;21338;-47
2022/07/14 09:24:04;;;;;;;4.67;3.53;;;27.40;53.00;;;;;;5029576;28;20228;-47
2022/07/14 09:26:30;;;;;;;6.37;4.60;;;27.60;52.20;;;;;;5025204;28;20546;-47
2022/07/14 09:28:57;;;;;;;4.30;3.90;;;27.70;51.90;;;;;;5030294;28;20457;-47
2022/07/14 09:31:30;;;;;;;4.20;3.63;;;27.80;51.60;;;;;;5029198;28;20232;-47
2022/07/14 09:34:00;;;;;;;5.13;4.60;;;28.00;52.00;;;;;;5030962;28;20224;-48
2022/07/14 09:36:30;;;;;;;4.90;3.83;;;28.20;50.80;;;;;;5009905;28;20235;-48
2022/07/14 09:39:09;;;;;;;4.53;3.63;;;28.30;50.20;;;;;;5028437;28;20219;-48
2022/07/14 09:41:56;;;;;;;4.70;3.67;;;28.40;50.40;;;;;;5024223;28;20208;-48
2022/07/14 09:44:23;;;;;;;6.27;3.93;;;28.40;50.50;;;;;;5026445;28;20219;-47
2022/07/14 09:46:54;;;;;;;3.87;3.50;;;28.50;50.40;;;;;;5025234;28;20201;-48
2022/07/14 09:49:24;;;;;;;4.20;3.80;;;28.60;49.90;;;;;;5023256;28;20211;-47
2022/07/14 09:52:01;;;;;;;4.37;3.97;;;28.80;49.40;;;;;;5027083;28;20246;-45
2022/07/14 09:54:37;;;;;;;4.00;3.70;;;28.80;49.30;;;;;;5025211;28;20227;-46
2022/07/14 09:57:26;;;;;;;3.87;3.43;;;28.80;49.40;;;;;;5025511;28;20204;-46
2022/07/14 10:00:12;;;;;;;6.00;4.17;;;28.70;49.60;;;;;;5020747;28;20250;-46
2022/07/14 10:02:40;;;;;;;4.57;3.60;;;28.80;49.80;;;;;;5026559;28;20235;-49
2022/07/14 10:05:09;;;;;;;3.57;3.27;;;29.00;49.50;;;;;;5022580;28;20580;-46
2022/07/14 10:07:47;;;;;;;5.13;3.58;;;29.30;49.00;;;;;;5025984;28;20588;-46
2022/07/14 10:10:22;;;;;;;4.35;3.95;;;29.60;48.40;;;;;;5025025;28;20559;-46
2022/07/14 10:12:50;;;;;;;4.53;4.13;;;30.00;47.50;;;;;;5023657;28;20208;-46
2022/07/14 10:15:17;;;;;;;4.03;3.70;;;30.30;47.10;;;;;;5024709;28;20828;-46
2022/07/14 10:17:44;;;;;;;6.68;3.70;;;30.60;46.60;;;;;;5023563;28;20291;-47
2022/07/14 10:20:15;;;;;;;3.67;3.38;;;30.90;46.10;;;;;;5022790;28;20208;-46
2022/07/14 10:22:44;;;;;;;5.30;3.72;;;31.10;46.00;;;;;;5007885;28;20212;-47
2022/07/14 10:25:11;;;;;;;3.70;3.40;;;31.30;45.80;;;;;;5025469;28;20218;-47
2022/07/14 10:27:41;;;;;;;5.47;3.65;;;31.50;45.20;;;;;;5026145;28;20638;-46
2022/07/14 10:30:09;;;;;;;4.53;3.67;;;31.60;45.00;;;;;;5027109;28;20204;-46
2022/07/14 10:32:56;;;;;;;5.68;3.90;;;31.70;44.80;;;;;;5003621;28;20295;-47
2022/07/14 10:35:57;;;;;;;5.20;3.78;;;31.90;44.50;;;;;;5020006;28;20220;-47
2022/07/14 10:39:22;;;;;;;3.92;3.60;;;31.90;44.60;;;;;;5025361;28;20242;-46
2022/07/14 10:42:05;;;;;;;4.43;3.72;;;31.70;44.50;;;;;;4940119;28;20211;-47
2022/07/14 10:44:35;;;;;;;3.97;3.67;;;31.60;44.40;;;;;;4998288;28;20228;-47
2022/07/14 10:47:14;;;;;;;4.65;3.72;;;31.40;44.90;;;;;;5019422;28;20219;-44
2022/07/14 10:50:02;;;;;;;4.22;3.70;;;31.20;45.60;;;;;;5026071;28;20579;-46
2022/07/14 10:52:32;;;;;;;5.43;3.50;;;30.90;45.90;;;;;;5025491;28;20755;-46
2022/07/14 10:55:22;;;;;;;4.07;3.47;;;30.70;46.50;;;;;;5024911;28;20208;-46
2022/07/14 10:57:58;;;;;;;6.30;3.92;;;30.60;47.00;;;;;;5025753;28;20212;-47
2022/07/14 11:00:43;;;;;;;4.10;3.58;;;30.40;46.80;;;;;;5023519;28;20207;-44
2022/07/14 11:03:24;;;;;;;4.28;3.92;;;30.20;47.10;;;;;;5028059;28;20255;-46
2022/07/14 11:09:17;;;;;;;5.05;3.85;;;29.70;48.00;;;;;;5028713;28;20226;-47
2022/07/14 11:12:11;;;;;;;4.70;4.22;;;29.40;48.70;;;;;;5023751;28;20706;-46
2022/07/14 11:14:41;;;;;;;4.43;4.03;;;29.30;48.80;;;;;;5020638;28;20208;-46
2022/07/14 11:17:08;;;;;;;4.53;4.00;;;29.20;48.80;;;;;;5025193;28;20669;-47
2022/07/14 11:19:38;;;;;;;5.20;4.10;;;29.20;49.00;;;;;;5023590;28;20240;-47
2022/07/14 11:22:17;;;;;;;4.20;3.90;;;29.20;48.60;;;;;;5024312;28;20300;-47
2022/07/14 11:24:53;;;;;;;4.60;4.00;;;29.20;49.20;;;;;;5025693;28;20239;-46
2022/07/14 11:27:29;;;;;;;6.10;4.50;;;29.10;49.10;;;;;;5022831;28;20215;-46
2022/07/14 11:29:57;;;;;;;5.23;4.13;;;29.20;48.60;;;;;;5019959;28;20294;-45
2022/07/14 11:32:35;;;;;;;6.85;4.00;;;29.20;49.00;;;;;;5025082;28;20206;-45
2022/07/14 11:38:20;;;;;;;3.60;3.30;;;29.20;48.70;;;;;;5026096;28;20302;-45
2022/07/14 11:40:53;;;;;;;4.13;3.72;;;29.30;48.20;;;;;;5025293;28;20311;-45
2022/07/14 11:43:29;;;;;;;4.57;3.13;;;29.30;48.50;;;;;;5008136;28;20683;-45
2022/07/14 11:46:07;;;;;;;9.02;3.78;;;29.30;47.80;;;;;;5026608;28;20602;-45
2022/07/14 11:48:36;;;;;;;4.82;4.43;;;29.20;48.50;;;;;;5027392;28;20231;-45
2022/07/14 11:51:27;;;;;;;4.87;3.80;;;29.20;47.80;;;;;;5026104;28;20212;-46
2022/07/14 11:53:58;;;;;;;5.25;3.75;;;29.20;47.90;;;;;;5026527;28;20212;-46
2022/07/14 11:56:27;;;;;;;4.33;3.93;;;29.10;48.00;;;;;;5025118;28;20256;-46
2022/07/14 11:58:58;;;;;;;4.10;3.70;;;29.00;47.80;;;;;;5023910;28;20238;-47
2022/07/14 12:01:32;;;;;;;4.77;4.37;;;29.00;48.60;;;;;;5021677;28;20295;-47
2022/07/14 12:04:07;;;;;;;3.90;3.60;;;28.90;48.00;;;;;;5009698;28;20235;-46
2022/07/14 12:06:38;;;;;;;4.53;4.13;;;28.80;47.70;;;;;;5026999;28;20208;-46
2022/07/14 12:09:05;;;;;;;7.75;4.22;;;28.90;47.20;;;;;;5025879;28;20211;-46
2022/07/14 12:11:53;;;;;;;4.07;3.67;;;28.80;47.40;;;;;;5026589;28;20668;-46
2022/07/14 12:14:20;;;;;;;5.33;3.40;;;28.80;47.20;;;;;;5006628;28;20591;-46
2022/07/14 12:16:47;;;;;;;6.70;3.20;;;28.70;46.80;;;;;;5024012;28;20212;-47
2022/07/14 12:19:14;;;;;;;3.80;3.60;;;28.70;46.50;;;;;;5024226;28;20205;-46
2022/07/14 12:21:41;;;;;;;3.37;2.63;;;28.70;45.70;;;;;;5027447;28;20218;-46
2022/07/14 12:24:11;;;;;;;3.50;3.07;;;28.70;44.90;;;;;;5031941;28;20228;-46
2022/07/14 12:26:39;;;;;;;4.07;3.67;;;28.70;45.00;;;;;;5028921;28;20303;-46
2022/07/14 12:29:14;;;;;;;4.43;3.20;;;28.70;45.20;;;;;;5028690;28;20199;-46
2022/07/14 12:31:42;;;;;;;3.70;2.97;;;28.80;45.20;;;;;;5008144;28;20208;-46
2022/07/14 12:34:10;;;;;;;3.60;3.10;;;28.80;45.10;;;;;;5021991;28;20711;-47
2022/07/14 12:36:37;;;;;;;3.70;3.40;;;28.80;44.60;;;;;;5011074;28;21002;-47
2022/07/14 12:39:05;;;;;;;4.10;3.20;;;28.70;44.70;;;;;;5029678;28;20270;-46
2022/07/14 12:41:33;;;;;;;4.73;3.53;;;28.80;44.70;;;;;;5028372;28;20230;-46
2022/07/14 12:44:10;;;;;;;4.17;3.47;;;28.80;44.50;;;;;;5025960;28;20602;-47
2022/07/14 12:46:37;;;;;;;3.03;2.50;;;28.80;44.20;;;;;;5025795;28;20299;-46
2022/07/14 12:49:07;;;;;;;4.90;2.63;;;28.80;43.90;;;;;;5028531;28;20212;-46
2022/07/14 12:51:33;;;;;;;4.77;3.37;;;28.80;44.00;;;;;;5027705;28;20212;-47
2022/07/14 12:54:07;;;;;;;3.13;2.83;;;28.80;43.80;;;;;;5027970;28;20208;-46
2022/07/14 12:56:33;;;;;;;3.40;2.67;;;28.80;44.30;;;;;;5031991;28;20212;-46
2022/07/14 12:59:03;;;;;;;3.73;2.63;;;28.80;43.60;;;;;;5029124;28;20890;-46
2022/07/14 13:01:30;;;;;;;4.15;2.60;;;28.80;43.30;;;;;;5028230;28;20212;-46
2022/07/14 13:04:00;;;;;;;5.70;2.60;;;28.80;43.00;;;;;;5026770;28;20224;-47
2022/07/14 13:06:40;;;;;;;3.77;2.90;;;28.90;43.30;;;;;;5030047;28;20311;-46
2022/07/14 13:09:17;;;;;;;2.90;2.60;;;29.00;42.20;;;;;;5031018;28;20311;-46
2022/07/14 13:11:45;;;;;;;3.47;2.83;;;29.00;42.10;;;;;;5028362;28;20204;-47
2022/07/14 13:14:13;;;;;;;3.60;2.40;;;29.00;41.50;;;;;;5024528;28;20216;-46
2022/07/14 13:16:49;;;;;;;6.33;3.10;;;29.10;41.50;;;;;;5026994;28;20307;-46
2022/07/14 13:19:18;;;;;;;3.20;2.90;;;29.10;41.20;;;;;;5009710;28;20223;-46
2022/07/14 13:21:52;;;;;;;2.70;2.50;;;29.10;41.30;;;;;;5025191;28;20627;-46